Time;durP1;ratioP1;P1;durP2;ratioP2;P2;SDS_P1;SDS_P2;PMS_P1;PMS_P2;Temp;Humidity;BMP_temperature;BMP_pressure;BME280_temperature;BME280_humidity;BME280_pressure;Samples;Min_cycle;Max_cycle;Signal;HPM_P1;HPM_P2
2023/03/11 00:00:40;;;;;;;0.60;0.60;;;;;;;2.85;100.00;99059.66;5037256;28;20029;-72
2023/03/11 00:03:07;;;;;;;0.60;0.60;;;;;;;2.93;100.00;99064.81;5045803;28;20044;-73
2023/03/11 00:05:38;;;;;;;0.47;0.47;;;;;;;2.92;100.00;99073.16;5041572;28;20041;-73
2023/03/11 00:08:06;;;;;;;0.70;0.70;;;;;;;2.92;100.00;99071.28;5042280;28;20048;-72
2023/03/11 00:10:35;;;;;;;1.00;0.90;;;;;;;2.80;100.00;99068.69;5042569;28;20048;-72
2023/03/11 00:13:01;;;;;;;0.40;0.40;;;;;;;2.73;100.00;99081.78;5046881;28;20041;-72
2023/03/11 00:15:28;;;;;;;0.55;0.55;;;;;;;2.59;100.00;99087.50;5041792;28;20047;-72
2023/03/11 00:17:54;;;;;;;0.50;0.45;;;;;;;2.54;100.00;99092.28;5046604;28;20116;-72
2023/03/11 00:20:21;;;;;;;0.40;0.40;;;;;;;2.57;100.00;99104.91;5030848;28;20064;-72
2023/03/11 00:22:46;;;;;;;0.50;0.50;;;;;;;2.56;100.00;99106.78;5044661;28;20040;-72
2023/03/11 00:25:12;;;;;;;0.30;0.30;;;;;;;2.65;100.00;99114.63;5028163;28;20037;-73
2023/03/11 00:27:38;;;;;;;0.55;0.55;;;;;;;2.66;100.00;99118.81;5028565;28;20029;-72
2023/03/11 00:30:04;;;;;;;0.70;0.70;;;;;;;2.73;100.00;99125.06;5047105;28;20116;-72
2023/03/11 00:32:31;;;;;;;0.20;0.20;;;;;;;2.88;100.00;99130.75;5041750;28;20751;-72
2023/03/11 00:34:57;;;;;;;0.40;0.40;;;;;;;2.92;100.00;99142.25;5043094;28;20030;-72
2023/03/11 00:37:22;;;;;;;0.75;0.75;;;;;;;2.73;100.00;99142.88;5046440;28;20043;-73
2023/03/11 00:39:48;;;;;;;0.65;0.65;;;;;;;2.91;100.00;99143.34;5035868;28;20029;-73
2023/03/11 00:42:13;;;;;;;0.63;0.63;;;;;;;3.07;100.00;99154.78;5041573;28;20068;-72
2023/03/11 00:44:39;;;;;;;0.60;0.60;;;;;;;2.93;100.00;99157.84;5016650;28;20378;-72
2023/03/11 00:47:04;;;;;;;0.60;0.60;;;;;;;2.83;100.00;99160.25;5057115;28;20393;-72
2023/03/11 00:49:30;;;;;;;1.15;1.13;;;;;;;2.81;100.00;99163.22;5021118;28;20497;-72
2023/03/11 00:51:55;;;;;;;0.95;0.85;;;;;;;2.86;100.00;99167.53;5036345;28;20307;-72
2023/03/11 00:54:21;;;;;;;4.28;0.50;;;;;;;2.85;100.00;99169.41;5043632;28;20037;-72
2023/03/11 00:56:46;;;;;;;0.47;0.47;;;;;;;3.02;100.00;99174.41;5038875;28;20033;-73
2023/03/11 00:59:12;;;;;;;0.65;0.52;;;;;;;3.11;100.00;99175.03;5044377;28;20120;-72
2023/03/11 01:01:37;;;;;;;0.77;0.77;;;;;;;3.08;100.00;99177.63;5027787;28;20116;-73
2023/03/11 01:04:03;;;;;;;0.40;0.40;;;;;;;3.02;100.00;99190.38;5047553;28;20486;-72
2023/03/11 01:06:28;;;;;;;0.40;0.40;;;;;;;2.94;100.00;99193.19;5050118;28;20631;-72
2023/03/11 01:08:54;;;;;;;0.55;0.55;;;;;;;2.89;100.00;99202.19;5067450;28;20043;-72
2023/03/11 01:11:19;;;;;;;0.30;0.30;;;;;;;2.92;100.00;99198.84;5034413;28;20119;-72
2023/03/11 01:13:45;;;;;;;0.30;0.30;;;;;;;2.85;100.00;99211.16;5051539;28;20044;-72
2023/03/11 01:16:10;;;;;;;0.60;0.60;;;;;;;2.75;100.00;99217.72;5052184;28;20056;-72
2023/03/11 01:18:36;;;;;;;1.75;0.68;;;;;;;2.71;100.00;99212.31;5031739;28;20103;-70
2023/03/11 01:21:02;;;;;;;0.50;0.50;;;;;;;2.77;100.00;99220.06;5050464;28;20037;-74
2023/03/11 01:23:27;;;;;;;0.30;0.30;;;;;;;2.62;100.00;99219.66;5052364;28;20051;-71
2023/03/11 01:25:53;;;;;;;1.65;0.95;;;;;;;2.83;100.00;99219.47;5051837;28;20029;-70
2023/03/11 01:28:18;;;;;;;0.40;0.40;;;;;;;2.85;100.00;99227.09;5048984;28;20182;-70
2023/03/11 01:30:44;;;;;;;0.30;0.30;;;;;;;2.81;100.00;99231.56;5050608;28;20033;-76
2023/03/11 01:33:15;;;;;;;0.55;0.55;;;;;;;2.80;100.00;99233.44;5043476;28;20125;-71
2023/03/11 01:35:42;;;;;;;0.40;0.40;;;;;;;2.83;100.00;99234.66;5049313;28;20064;-70
2023/03/11 01:38:08;;;;;;;0.90;0.90;;;;;;;2.90;100.00;99240.94;5067951;28;20063;-71
2023/03/11 01:40:34;;;;;;;0.30;0.30;;;;;;;2.90;100.00;99243.59;5032818;28;20068;-70
2023/03/11 01:43:06;;;;;;;0.98;0.85;;;;;;;2.88;100.00;99253.81;5034316;28;20456;-71
2023/03/11 01:45:38;;;;;;;1.08;0.82;;;;;;;2.85;100.00;99257.13;5051481;28;20470;-73
2023/03/11 01:48:07;;;;;;;1.15;1.15;;;;;;;2.86;100.00;99268.53;5044624;28;20677;-72
2023/03/11 01:50:42;;;;;;;0.60;0.60;;;;;;;2.94;100.00;99259.66;5061168;28;20024;-71
2023/03/11 01:53:08;;;;;;;0.80;0.75;;;;;;;2.94;100.00;99271.06;5049270;28;20041;-71
2023/03/11 01:55:34;;;;;;;1.95;0.90;;;;;;;2.92;100.00;99270.63;5050264;28;20060;-71
2023/03/11 01:58:04;;;;;;;0.52;0.52;;;;;;;2.85;100.00;99274.94;5061988;28;20068;-70
2023/03/11 02:00:30;;;;;;;0.37;0.37;;;;;;;2.72;100.00;99272.34;5051954;28;20033;-70
2023/03/11 02:02:59;;;;;;;0.55;0.43;;;;;;;2.73;100.00;99281.06;5052966;28;20086;-72
2023/03/11 02:05:28;;;;;;;0.40;0.40;;;;;;;2.85;100.00;99283.69;5043538;28;20651;-71
2023/03/11 02:07:54;;;;;;;0.52;0.52;;;;;;;2.89;100.00;99289.09;5030303;28;20458;-73
2023/03/11 02:10:22;;;;;;;0.50;0.50;;;;;;;2.96;100.00;99286.66;5047100;28;20079;-71
2023/03/11 02:12:49;;;;;;;0.60;0.60;;;;;;;2.79;100.00;99287.69;5051252;28;20028;-71
2023/03/11 02:15:21;;;;;;;0.38;0.38;;;;;;;2.58;100.00;99293.19;5052072;28;20041;-70
2023/03/11 02:17:46;;;;;;;0.50;0.50;;;;;;;2.69;100.00;99293.50;5050383;28;20496;-71
2023/03/11 02:20:26;;;;;;;0.75;0.75;;;;;;;2.69;100.00;99296.91;5048036;28;20033;-70
2023/03/11 02:22:56;;;;;;;0.60;0.60;;;;;;;2.78;100.00;99299.44;5034198;28;20033;-73
2023/03/11 02:25:30;;;;;;;0.73;0.73;;;;;;;2.84;100.00;99299.97;5031967;28;20136;-71
2023/03/11 02:27:58;;;;;;;0.73;0.70;;;;;;;3.03;100.00;99308.91;5030541;28;20036;-70
2023/03/11 02:30:26;;;;;;;0.40;0.40;;;;;;;3.09;100.00;99315.53;5044756;28;20033;-71
2023/03/11 02:32:53;;;;;;;0.40;0.40;;;;;;;3.11;100.00;99321.28;5050112;28;20124;-70
2023/03/11 02:35:20;;;;;;;0.28;0.28;;;;;;;3.06;100.00;99318.09;5040043;28;20029;-72
2023/03/11 02:37:48;;;;;;;0.85;0.55;;;;;;;2.92;100.00;99336.28;5049568;28;20031;-70
2023/03/11 02:40:22;;;;;;;0.50;0.50;;;;;;;2.79;100.00;99342.75;5050453;28;20033;-70
2023/03/11 02:43:02;;;;;;;1.05;1.05;;;;;;;3.04;100.00;99342.34;5039950;28;20113;-71
2023/03/11 02:45:29;;;;;;;0.60;0.60;;;;;;;3.05;100.00;99353.75;5062817;28;20021;-71
2023/03/11 02:47:57;;;;;;;0.20;0.20;;;;;;;3.06;100.00;99357.97;5066866;28;20106;-72
2023/03/11 02:50:26;;;;;;;0.63;0.57;;;;;;;2.74;100.00;99368.44;5050623;28;20032;-71
2023/03/11 02:52:52;;;;;;;0.85;0.80;;;;;;;2.55;100.00;99378.09;5027518;28;20034;-71
2023/03/11 02:55:19;;;;;;;0.70;0.70;;;;;;;2.65;100.00;99380.31;5046921;28;20032;-71
2023/03/11 02:57:46;;;;;;;0.60;0.60;;;;;;;2.92;100.00;99384.13;5049738;28;20510;-71
2023/03/11 03:00:13;;;;;;;1.10;0.80;;;;;;;3.07;100.00;99386.88;5049510;28;20024;-71
2023/03/11 03:02:43;;;;;;;0.50;0.50;;;;;;;3.02;100.00;99408.34;5047305;28;20093;-71
2023/03/11 03:05:10;;;;;;;0.95;0.90;;;;;;;2.94;100.00;99406.63;5049797;28;20032;-73
2023/03/11 03:07:36;;;;;;;0.68;0.68;;;;;;;3.13;100.00;99404.16;5048705;28;20041;-73
2023/03/11 03:10:04;;;;;;;0.40;0.40;;;;;;;3.21;100.00;99411.22;5044535;28;20131;-71
2023/03/11 03:12:29;;;;;;;0.52;0.50;;;;;;;3.17;100.00;99417.53;5047415;28;20029;-73
2023/03/11 03:14:56;;;;;;;0.55;0.55;;;;;;;3.05;100.00;99407.72;5030261;28;20811;-77
2023/03/11 03:17:23;;;;;;;0.30;0.30;;;;;;;2.79;100.00;99415.25;5050209;28;20119;-71
2023/03/11 03:19:49;;;;;;;1.20;0.30;;;;;;;2.64;100.00;99416.72;5049779;28;20029;-71
2023/03/11 03:22:15;;;;;;;1.58;0.82;;;;;;;2.72;100.00;99420.38;5048733;28;20024;-71
2023/03/11 03:24:40;;;;;;;0.30;0.30;;;;;;;2.86;100.00;99434.09;5037404;28;20048;-72
2023/03/11 03:27:06;;;;;;;0.88;0.88;;;;;;;2.95;100.00;99432.09;5048951;28;20086;-70
2023/03/11 03:29:32;;;;;;;0.40;0.40;;;;;;;2.87;100.00;99437.50;5054522;28;20028;-74
2023/03/11 03:31:58;;;;;;;0.50;0.50;;;;;;;2.85;100.00;99445.81;5032549;28;20078;-70
2023/03/11 03:34:23;;;;;;;0.20;0.20;;;;;;;2.69;100.00;99447.63;5049471;28;20250;-72
2023/03/11 03:36:49;;;;;;;0.40;0.40;;;;;;;2.44;100.00;99452.09;5021147;28;20117;-72
2023/03/11 03:39:17;;;;;;;0.20;0.20;;;;;;;2.54;100.00;99457.00;5049125;28;20090;-71
2023/03/11 03:41:42;;;;;;;0.40;0.40;;;;;;;2.67;100.00;99466.53;5049764;28;20037;-75
2023/03/11 03:44:08;;;;;;;0.55;0.55;;;;;;;2.47;100.00;99479.91;5049787;28;20116;-70
2023/03/11 03:46:37;;;;;;;0.82;0.82;;;;;;;2.48;100.00;99474.25;5049032;28;20570;-74
2023/03/11 03:49:03;;;;;;;0.75;0.75;;;;;;;2.52;100.00;99483.13;5045489;28;20029;-72
2023/03/11 03:51:30;;;;;;;1.90;0.70;;;;;;;2.28;100.00;99491.06;5030238;28;20116;-71
2023/03/11 03:54:03;;;;;;;0.98;0.60;;;;;;;2.34;100.00;99483.66;5042858;28;20029;-72
2023/03/11 03:56:29;;;;;;;0.85;0.35;;;;;;;2.27;100.00;99494.78;5039139;28;20525;-73
2023/03/11 03:58:55;;;;;;;0.68;0.68;;;;;;;2.28;100.00;99500.88;5026335;28;20025;-71
2023/03/11 04:01:23;;;;;;;2.20;0.88;;;;;;;2.50;100.00;99503.13;5047715;28;20502;-74
2023/03/11 04:03:49;;;;;;;0.32;0.32;;;;;;;2.72;100.00;99500.88;5032104;28;20036;-71
2023/03/11 04:06:17;;;;;;;0.68;0.68;;;;;;;2.70;100.00;99503.06;5043746;28;20056;-71
2023/03/11 04:08:44;;;;;;;0.60;0.60;;;;;;;2.72;100.00;99513.38;5049209;28;20049;-71
2023/03/11 04:11:10;;;;;;;0.50;0.50;;;;;;;2.59;100.00;99517.13;5049070;28;20082;-71
2023/03/11 04:13:36;;;;;;;0.47;0.47;;;;;;;2.72;100.00;99516.81;5042244;28;20116;-71
2023/03/11 04:16:05;;;;;;;2.17;0.80;;;;;;;2.51;100.00;99520.66;5046336;28;20477;-71
2023/03/11 04:18:30;;;;;;;0.20;0.20;;;;;;;2.57;100.00;99529.97;5043000;28;20508;-73
2023/03/11 04:20:56;;;;;;;0.35;0.35;;;;;;;2.45;100.00;99516.63;5042233;28;20401;-72
2023/03/11 04:23:22;;;;;;;0.40;0.40;;;;;;;2.55;100.00;99524.19;5048102;28;20037;-74
2023/03/11 04:25:47;;;;;;;0.52;0.52;;;;;;;2.61;100.00;99515.66;5044576;28;20037;-74
2023/03/11 04:28:13;;;;;;;0.40;0.40;;;;;;;2.69;100.00;99527.31;5062227;28;20454;-74
2023/03/11 04:30:39;;;;;;;0.75;0.75;;;;;;;2.77;100.00;99529.09;5047606;28;20109;-74
2023/03/11 04:33:05;;;;;;;0.55;0.55;;;;;;;2.55;100.00;99537.47;5048332;28;20025;-73
2023/03/11 04:35:31;;;;;;;0.77;0.77;;;;;;;2.66;100.00;99546.56;5036273;28;20108;-73
2023/03/11 04:37:57;;;;;;;0.50;0.50;;;;;;;2.86;100.00;99535.09;5045875;28;20545;-74
2023/03/11 04:40:24;;;;;;;0.47;0.47;;;;;;;2.99;100.00;99543.84;5050308;28;20029;-74
2023/03/11 04:42:49;;;;;;;0.75;0.75;;;;;;;3.03;100.00;99542.06;5049009;28;20095;-74
2023/03/11 04:45:17;;;;;;;0.60;0.60;;;;;;;3.02;100.00;99533.31;5050963;28;20028;-72
2023/03/11 04:47:47;;;;;;;0.38;0.38;;;;;;;3.11;99.26;99538.53;5027517;28;20036;-73
2023/03/11 04:50:14;;;;;;;0.30;0.30;;;;;;;3.08;98.88;99534.66;5050408;28;20413;-73
2023/03/11 04:52:39;;;;;;;0.65;0.65;;;;;;;3.05;98.59;99539.88;5047714;28;20037;-73
2023/03/11 04:55:06;;;;;;;0.50;0.50;;;;;;;3.08;98.49;99545.28;5034199;28;20112;-74
2023/03/11 04:57:31;;;;;;;1.02;0.68;;;;;;;3.06;97.72;99546.75;5028110;28;20025;-74
2023/03/11 04:59:57;;;;;;;0.30;0.30;;;;;;;2.90;97.99;99549.28;5051372;28;20035;-73
2023/03/11 05:02:23;;;;;;;0.50;0.50;;;;;;;2.80;97.77;99549.69;5045437;28;20116;-74
2023/03/11 05:04:53;;;;;;;2.22;0.85;;;;;;;2.89;97.69;99557.56;5049087;28;20063;-73
2023/03/11 05:07:19;;;;;;;0.40;0.40;;;;;;;2.67;97.53;99564.84;5049395;28;20517;-74
2023/03/11 05:09:46;;;;;;;0.73;0.73;;;;;;;2.65;98.17;99568.94;5051212;28;20024;-74
2023/03/11 05:12:12;;;;;;;0.47;0.47;;;;;;;2.78;97.93;99578.50;5032980;28;20111;-74
2023/03/11 05:14:39;;;;;;;0.80;0.80;;;;;;;2.66;98.41;99591.75;5034312;28;20119;-73
2023/03/11 05:17:05;;;;;;;0.63;0.63;;;;;;;2.70;98.27;99589.97;5051153;28;20732;-74
2023/03/11 05:19:30;;;;;;;2.10;0.73;;;;;;;2.81;98.41;99593.00;5049756;28;20037;-75
2023/03/11 05:21:57;;;;;;;0.77;0.77;;;;;;;2.93;97.80;99596.47;5034365;28;20608;-75
2023/03/11 05:24:27;;;;;;;0.47;0.47;;;;;;;2.83;97.46;99602.19;5033774;28;20036;-74
2023/03/11 05:26:53;;;;;;;0.50;0.50;;;;;;;2.74;97.67;99598.84;5033478;28;20492;-73
2023/03/11 05:29:20;;;;;;;1.25;1.23;;;;;;;2.79;98.08;99613.81;5045736;28;20028;-73
2023/03/11 05:31:46;;;;;;;0.40;0.40;;;;;;;2.88;98.16;99609.19;5067069;28;20025;-74
2023/03/11 05:34:12;;;;;;;0.47;0.47;;;;;;;2.80;98.09;99623.34;5050339;28;20051;-72
2023/03/11 05:36:37;;;;;;;0.40;0.40;;;;;;;2.71;98.51;99620.75;5046461;28;20132;-70
2023/03/11 05:39:03;;;;;;;1.45;0.57;;;;;;;2.69;98.40;99630.97;5045276;28;20060;-71
2023/03/11 05:41:30;;;;;;;0.45;0.45;;;;;;;2.70;98.64;99630.63;5050889;28;20052;-72
2023/03/11 05:43:56;;;;;;;0.40;0.40;;;;;;;2.75;98.77;99633.06;5049232;28;20421;-72
2023/03/11 05:46:21;;;;;;;0.85;0.85;;;;;;;2.79;98.48;99640.41;5044662;28;20520;-72
2023/03/11 05:48:47;;;;;;;0.30;0.30;;;;;;;2.58;99.01;99643.06;5031447;28;20044;-73
2023/03/11 05:51:13;;;;;;;0.63;0.63;;;;;;;2.48;99.15;99654.88;5046391;28;20036;-73
2023/03/11 05:53:48;;;;;;;0.70;0.70;;;;;;;2.25;99.12;99669.59;5048730;28;20124;-71
2023/03/11 05:56:20;;;;;;;1.10;0.77;;;;;;;2.08;100.00;99669.72;5049413;28;20094;-74
2023/03/11 05:58:46;;;;;;;0.50;0.50;;;;;;;2.16;100.00;99666.22;5047661;28;20029;-73
2023/03/11 06:01:15;;;;;;;0.75;0.75;;;;;;;2.16;100.00;99668.88;5021552;28;20037;-72
2023/03/11 06:03:41;;;;;;;0.88;0.88;;;;;;;2.17;100.00;99672.34;5038491;28;20100;-72
2023/03/11 06:06:09;;;;;;;0.73;0.73;;;;;;;2.15;100.00;99675.28;5032527;28;20117;-71
2023/03/11 06:08:35;;;;;;;0.40;0.40;;;;;;;2.16;99.90;99681.38;5026837;28;20108;-73
2023/03/11 06:11:07;;;;;;;0.60;0.60;;;;;;;2.07;99.80;99685.97;5019243;28;20031;-72
2023/03/11 06:13:36;;;;;;;0.68;0.68;;;;;;;2.20;100.00;99688.38;5041921;28;20067;-73
2023/03/11 06:16:03;;;;;;;0.73;0.73;;;;;;;2.39;99.80;99698.56;5028432;28;20025;-73
2023/03/11 06:18:28;;;;;;;0.50;0.50;;;;;;;2.59;98.92;99697.78;5031566;28;20021;-73
2023/03/11 06:20:57;;;;;;;0.40;0.40;;;;;;;2.69;98.13;99708.78;5045405;28;20086;-72
2023/03/11 06:23:23;;;;;;;0.75;0.75;;;;;;;2.64;98.25;99705.53;5050260;28;20028;-72
2023/03/11 06:26:00;;;;;;;1.65;0.98;;;;;;;2.52;97.97;99719.53;5048553;28;20048;-72
2023/03/11 06:28:28;;;;;;;0.98;0.98;;;;;;;2.59;97.61;99711.06;5024699;28;20053;-73
2023/03/11 06:30:57;;;;;;;0.43;0.43;;;;;;;2.47;97.89;99711.00;5049131;28;20116;-73
2023/03/11 06:33:23;;;;;;;1.27;0.95;;;;;;;2.47;98.23;99718.97;5049941;28;20112;-73
2023/03/11 06:35:59;;;;;;;0.30;0.30;;;;;;;2.67;98.11;99720.84;5044299;28;20717;-71
2023/03/11 06:38:26;;;;;;;0.60;0.60;;;;;;;2.52;97.49;99718.75;5055242;28;20059;-71
2023/03/11 06:40:51;;;;;;;0.60;0.60;;;;;;;2.41;97.63;99723.69;5026170;28;20572;-72
2023/03/11 06:43:17;;;;;;;0.38;0.38;;;;;;;2.25;97.26;99728.00;5047914;28;20037;-75
2023/03/11 06:45:44;;;;;;;0.30;0.30;;;;;;;2.41;97.74;99731.66;5049428;28;20037;-73
2023/03/11 06:48:10;;;;;;;0.30;0.30;;;;;;;2.68;96.64;99739.13;5032422;28;20565;-72
2023/03/11 06:50:37;;;;;;;0.55;0.55;;;;;;;2.62;96.22;99743.06;5046491;28;20489;-73
2023/03/11 06:53:06;;;;;;;0.30;0.30;;;;;;;2.60;96.55;99749.81;5049190;28;20048;-73
2023/03/11 06:55:33;;;;;;;1.42;1.10;;;;;;;2.59;96.69;99751.69;5031933;28;20032;-71
2023/03/11 06:57:59;;;;;;;0.30;0.30;;;;;;;2.71;96.37;99758.94;5048508;28;20033;-73
2023/03/11 07:00:25;;;;;;;4.30;0.60;;;;;;;2.70;95.52;99757.41;5047439;28;20013;-71
2023/03/11 07:02:55;;;;;;;0.80;0.80;;;;;;;2.46;95.92;99767.88;5038598;28;20460;-73
2023/03/11 07:05:22;;;;;;;0.40;0.40;;;;;;;2.60;96.02;99776.38;5039009;28;20029;-72
2023/03/11 07:07:54;;;;;;;0.73;0.70;;;;;;;2.71;95.73;99778.31;5048394;28;20052;-72
2023/03/11 07:10:21;;;;;;;0.50;0.50;;;;;;;2.84;95.32;99775.75;5046248;28;20024;-72
2023/03/11 07:12:47;;;;;;;0.43;0.43;;;;;;;2.85;94.93;99786.03;5030448;28;20028;-71
2023/03/11 07:15:12;;;;;;;0.55;0.55;;;;;;;2.76;95.27;99788.00;5047620;28;20056;-73
2023/03/11 07:17:40;;;;;;;0.40;0.40;;;;;;;2.62;95.05;99796.22;5046949;28;20025;-73
2023/03/11 07:20:07;;;;;;;0.57;0.57;;;;;;;2.62;95.68;99788.25;5059838;28;20025;-73
2023/03/11 07:22:33;;;;;;;0.50;0.50;;;;;;;2.80;95.65;99791.56;5049060;28;20056;-75
2023/03/11 07:24:58;;;;;;;0.40;0.40;;;;;;;2.98;94.86;99792.97;5029722;28;20072;-71
2023/03/11 07:27:23;;;;;;;0.40;0.40;;;;;;;3.03;94.55;99792.78;5033402;28;20041;-74
2023/03/11 07:29:49;;;;;;;0.40;0.40;;;;;;;3.23;94.31;99805.25;5034632;28;20016;-69
2023/03/11 07:32:14;;;;;;;0.28;0.28;;;;;;;3.33;93.96;99814.75;5041651;28;20059;-74
2023/03/11 07:34:40;;;;;;;0.40;0.40;;;;;;;3.42;93.96;99810.91;5047361;28;20033;-72
2023/03/11 07:37:05;;;;;;;1.05;0.95;;;;;;;3.39;93.19;99805.44;5045034;28;20041;-73
2023/03/11 07:39:31;;;;;;;0.38;0.38;;;;;;;3.66;93.24;99816.28;5046294;28;20044;-71
2023/03/11 07:41:59;;;;;;;2.60;0.73;;;;;;;3.85;93.34;99821.09;5048245;28;20403;-73
2023/03/11 07:44:32;;;;;;;0.35;0.35;;;;;;;4.05;92.05;99830.88;5025351;28;20029;-73
2023/03/11 07:47:01;;;;;;;0.38;0.38;;;;;;;4.04;91.60;99831.22;5043301;28;20040;-73
2023/03/11 07:49:27;;;;;;;0.68;0.68;;;;;;;4.21;91.33;99836.34;5041559;28;20065;-70
2023/03/11 07:51:52;;;;;;;0.30;0.30;;;;;;;4.31;91.33;99844.69;5049017;28;20040;-72
2023/03/11 07:54:18;;;;;;;0.45;0.45;;;;;;;4.48;91.30;99855.13;5031645;28;20033;-73
2023/03/11 07:56:43;;;;;;;0.30;0.30;;;;;;;4.72;90.42;99862.31;5048763;28;20044;-73
2023/03/11 07:59:09;;;;;;;0.25;0.25;;;;;;;4.88;89.26;99865.09;5038234;28;20125;-72
2023/03/11 08:01:40;;;;;;;0.80;0.80;;;;;;;5.14;88.48;99860.91;5046835;28;20033;-73
2023/03/11 08:04:10;;;;;;;0.50;0.50;;;;;;;5.30;87.96;99872.41;5039290;28;20037;-73
2023/03/11 08:06:36;;;;;;;0.40;0.40;;;;;;;5.41;86.57;99867.38;5046812;28;20043;-73
2023/03/11 08:09:05;;;;;;;0.52;0.52;;;;;;;5.61;86.56;99876.31;5049191;28;20409;-73
2023/03/11 08:11:31;;;;;;;0.55;0.55;;;;;;;5.80;84.90;99882.56;5049617;28;20033;-73
2023/03/11 08:13:57;;;;;;;0.30;0.30;;;;;;;5.93;84.34;99888.66;5048854;28;20024;-73
2023/03/11 08:16:23;;;;;;;1.23;0.70;;;;;;;6.06;83.08;99893.56;5051590;28;20033;-70
2023/03/11 08:18:51;;;;;;;0.77;0.77;;;;;;;6.14;82.91;99900.66;5035922;28;20099;-73
2023/03/11 08:21:22;;;;;;;0.40;0.40;;;;;;;6.33;81.97;99908.00;5052439;28;20065;-73
2023/03/11 08:23:48;;;;;;;;;;;;;;;6.49;81.12;99910.66;5051916;28;20044;-71
2023/03/11 08:26:16;;;;;;;0.40;0.40;;;;;;;6.71;80.21;99918.09;5051521;28;19924;-73
2023/03/11 08:28:42;;;;;;;0.65;0.40;;;;;;;6.88;79.66;99912.38;5052267;28;20043;-71
2023/03/11 08:31:15;;;;;;;0.43;0.43;;;;;;;7.04;78.79;99916.59;5031956;28;20025;-73
2023/03/11 08:33:41;;;;;;;0.57;0.57;;;;;;;7.09;78.03;99927.00;5033195;28;20052;-72
2023/03/11 08:36:07;;;;;;;0.40;0.40;;;;;;;7.21;77.51;99932.25;5032235;28;20033;-73
2023/03/11 08:38:32;;;;;;;0.80;0.80;;;;;;;7.42;76.29;99939.19;5033372;28;20021;-72
2023/03/11 08:40:58;;;;;;;1.15;0.90;;;;;;;7.55;75.00;99935.25;5028562;28;20071;-73
2023/03/11 08:43:23;;;;;;;0.30;0.30;;;;;;;7.70;73.98;99945.91;5045848;28;20545;-73
2023/03/11 08:45:49;;;;;;;0.65;0.38;;;;;;;7.67;74.04;99943.91;5048941;28;20698;-70
2023/03/11 08:48:14;;;;;;;0.68;0.60;;;;;;;7.75;74.12;99948.31;5027513;28;20041;-72
2023/03/11 08:50:41;;;;;;;0.30;0.30;;;;;;;7.84;73.40;99942.75;5045336;28;20041;-72
2023/03/11 08:53:07;;;;;;;0.40;0.40;;;;;;;7.99;72.82;99948.00;5049342;28;20037;-73
2023/03/11 08:55:33;;;;;;;0.47;0.40;;;;;;;8.11;71.42;99950.53;5047106;28;20120;-71
2023/03/11 08:57:59;;;;;;;0.25;0.25;;;;;;;8.25;71.12;99959.97;5031977;28;20121;-71
2023/03/11 09:00:24;;;;;;;1.17;0.60;;;;;;;8.38;69.97;99961.38;5023950;28;20478;-73
2023/03/11 09:02:50;;;;;;;0.30;0.30;;;;;;;8.71;66.58;99965.00;5040166;28;20024;-73
2023/03/11 09:05:16;;;;;;;0.10;0.10;;;;;;;8.82;67.78;99968.66;5047278;28;20440;-73
2023/03/11 09:07:41;;;;;;;0.17;0.17;;;;;;;8.74;67.69;99966.22;5041238;28;22005;-70
2023/03/11 09:10:07;;;;;;;0.13;0.13;;;;;;;8.71;67.16;99964.25;5024370;28;20043;-73
2023/03/11 09:12:33;;;;;;;0.40;0.40;;;;;;;9.02;65.26;99969.31;5051039;28;20033;-72
2023/03/11 09:14:58;;;;;;;0.30;0.22;;;;;;;8.91;66.32;99973.75;5047900;28;20050;-73
2023/03/11 09:17:24;;;;;;;0.10;0.10;;;;;;;8.80;66.96;99972.84;5049371;28;20460;-72
2023/03/11 09:19:49;;;;;;;0.22;0.22;;;;;;;8.94;67.26;99983.81;5048891;28;20025;-73
2023/03/11 09:22:15;;;;;;;0.30;0.30;;;;;;;9.00;66.55;99980.44;5040231;28;20501;-72
2023/03/11 09:24:41;;;;;;;0.22;0.20;;;;;;;9.10;64.67;99982.50;5037332;28;20070;-72
2023/03/11 09:27:06;;;;;;;0.50;0.43;;;;;;;9.16;64.55;99990.25;5040515;28;20036;-71
2023/03/11 09:29:31;;;;;;;0.30;0.30;;;;;;;9.22;63.65;99994.19;5041185;28;20528;-73
2023/03/11 09:31:57;;;;;;;0.28;0.20;;;;;;;9.43;63.19;99995.25;5034657;28;20064;-73
2023/03/11 09:34:23;;;;;;;0.60;0.60;;;;;;;9.56;62.97;99998.53;5044612;28;20121;-71
2023/03/11 09:36:48;;;;;;;0.80;0.30;;;;;;;9.69;61.54;99997.16;5041950;28;20108;-72
2023/03/11 09:39:14;;;;;;;0.45;0.45;;;;;;;9.83;60.62;100008.84;5030990;28;20044;-73
2023/03/11 09:41:46;;;;;;;0.88;0.50;;;;;;;9.83;60.84;100008.09;5040954;28;20033;-73
2023/03/11 09:44:33;;;;;;;0.30;0.30;;;;;;;9.91;59.90;100012.44;5039458;28;20098;-73
2023/03/11 09:47:17;;;;;;;0.50;0.50;;;;;;;9.81;61.80;100018.44;5036406;28;20532;-72
2023/03/11 09:49:51;;;;;;;0.20;0.13;;;;;;;9.77;59.81;100012.25;5053932;28;20041;-73
2023/03/11 09:52:37;;;;;;;0.77;0.40;;;;;;;9.53;60.70;100009.97;5047285;28;20047;-72
2023/03/11 09:55:04;;;;;;;0.10;0.10;;;;;;;9.59;61.85;100014.69;5050368;28;20530;-73
2023/03/11 09:57:36;;;;;;;0.10;0.10;;;;;;;9.48;61.85;100013.00;5050517;28;20037;-73
2023/03/11 10:00:03;;;;;;;;;;;;;;;9.23;62.79;100012.66;5040748;28;20128;-70
2023/03/11 10:02:38;;;;;;;0.20;0.20;;;;;;;9.27;63.60;100010.75;5045092;28;20335;-74
2023/03/11 10:05:25;;;;;;;0.10;0.10;;;;;;;9.45;61.91;100009.13;5033896;28;20029;-71
2023/03/11 10:08:10;;;;;;;0.30;0.20;;;;;;;9.40;62.51;100024.78;5045860;28;20075;-72
2023/03/11 10:10:44;;;;;;;0.65;0.50;;;;;;;9.45;62.06;100025.25;5025955;28;20075;-70
2023/03/11 10:13:35;;;;;;;0.10;0.10;;;;;;;9.40;61.40;100022.88;5028691;28;20053;-73
2023/03/11 10:16:34;;;;;;;0.10;0.10;;;;;;;9.59;62.50;100030.03;5038221;28;20147;-72
2023/03/11 10:19:06;;;;;;;0.30;0.30;;;;;;;9.67;62.48;100032.47;5042879;28;20036;-73
2023/03/11 10:21:45;;;;;;;0.10;0.10;;;;;;;9.75;61.54;100033.34;5047117;28;20039;-72
2023/03/11 10:24:29;;;;;;;0.30;0.30;;;;;;;9.85;60.49;100038.09;5045955;28;20045;-72
2023/03/11 10:27:01;;;;;;;0.10;0.10;;;;;;;9.92;59.41;100043.56;5040528;28;20028;-72
2023/03/11 10:29:39;;;;;;;0.20;0.20;;;;;;;9.94;57.92;100031.28;5045061;28;20124;-72
2023/03/11 10:32:33;;;;;;;0.75;0.28;;;;;;;9.78;58.36;100035.28;5047938;28;20513;-72
2023/03/11 10:35:45;;;;;;;0.43;0.30;;;;;;;9.51;61.00;100039.13;5035335;28;20044;-72
2023/03/11 10:38:11;;;;;;;;;;;;;;;9.42;60.84;100036.72;5041803;28;20037;-72
2023/03/11 10:40:40;;;;;;;0.30;0.30;;;;;;;8.95;61.01;100039.03;5037837;28;20570;-71
2023/03/11 10:43:13;;;;;;;0.25;0.25;;;;;;;9.13;62.25;100039.34;5047213;28;20088;-71
2023/03/11 10:45:43;;;;;;;0.25;0.25;;;;;;;9.21;60.33;100039.09;5041559;28;20437;-71
2023/03/11 10:48:14;;;;;;;1.42;0.28;;;;;;;9.36;60.28;100042.75;5043431;28;20052;-72
2023/03/11 10:50:46;;;;;;;;;;;;;;;9.02;61.33;100028.41;5045087;28;20028;-71
2023/03/11 10:53:17;;;;;;;0.10;0.10;;;;;;;9.00;61.17;100038.75;5064913;28;20013;-71
2023/03/11 10:55:51;;;;;;;0.20;0.20;;;;;;;9.37;60.88;100052.38;5043084;28;20099;-72
2023/03/11 10:58:26;;;;;;;0.25;0.25;;;;;;;9.45;60.25;100040.59;5049829;28;20032;-71
2023/03/11 11:01:27;;;;;;;0.57;0.57;;;;;;;9.62;59.87;100035.47;5043239;28;20082;-71
2023/03/11 11:03:56;;;;;;;0.22;0.22;;;;;;;9.50;61.02;100049.13;5041594;28;20064;-71
2023/03/11 11:06:24;;;;;;;0.30;0.30;;;;;;;9.79;60.31;100056.44;5046660;28;20044;-71
2023/03/11 11:09:12;;;;;;;0.20;0.20;;;;;;;9.88;58.56;100054.28;5048340;28;20033;-71
2023/03/11 11:11:38;;;;;;;0.20;0.20;;;;;;;9.65;60.00;100048.19;5042402;28;20032;-71
2023/03/11 11:14:05;;;;;;;0.10;0.10;;;;;;;9.19;60.87;100048.63;5065022;28;20047;-72
2023/03/11 11:16:33;;;;;;;0.22;0.22;;;;;;;9.38;59.87;100052.03;5051340;28;20094;-71
2023/03/11 11:19:03;;;;;;;0.40;0.40;;;;;;;9.27;61.56;100044.94;5044241;28;20116;-71
2023/03/11 11:21:42;;;;;;;0.10;0.10;;;;;;;9.59;60.43;100051.53;5029486;28;20040;-71
2023/03/11 11:24:23;;;;;;;0.40;0.40;;;;;;;9.69;60.07;100040.16;5042197;28;20044;-70
2023/03/11 11:27:03;;;;;;;1.45;0.88;;;;;;;9.62;61.87;100040.09;5046727;28;20563;-71
2023/03/11 11:29:29;;;;;;;1.65;0.50;;;;;;;9.59;61.54;100043.47;5049607;28;20033;-71
2023/03/11 11:32:18;;;;;;;0.30;0.22;;;;;;;9.50;61.49;100043.75;5039040;28;20453;-70
2023/03/11 11:34:56;;;;;;;0.43;0.43;;;;;;;10.02;59.36;100042.91;5061948;28;20457;-72
2023/03/11 11:37:22;;;;;;;0.22;0.22;;;;;;;10.09;59.27;100040.31;5038188;28;20045;-72
2023/03/11 11:39:50;;;;;;;0.10;0.10;;;;;;;10.28;58.82;100045.53;5050601;28;20033;-71
2023/03/11 11:42:18;;;;;;;0.20;0.20;;;;;;;9.74;59.65;100047.91;5049625;28;20064;-71